Airfield :
LOGIN :

Register | Disclaimer

   EN    FR    IT 

 










Legend :    VFR   Marginal VFR   IFR   Intensive IFR   Very Intensive IFR
Visi :
Ceiling :
>= 8 km
>= 3000ft
5 to 8 km
1000 to 3000 ft
1500m to 5 km
500 to 1000 ft
800 to 1500m
200 to 500 ft
< 800m
< 200 ft
Symbols :   Thunderstorms  Fog  Heavy snow  Heavy precipitations  Wind > 20 kt
SIGMETs :     Misc.  Thunderstorms  Icing  Turbulence  Mountain Waves  Volcanic Ashes






- Airport Elevation : 1548 ft


LKNA - Náměšť Air Base

CURRENT METAR :
  • 280700Z 29015KT 9999 FEW033 12/02 Q1016 NOSIG RMK BLU BLU

EXPIRED METARs :
  • 280630Z 29012KT 9999 FEW028 12/04 Q1016 NOSIG RMK BLU BLU
  • 280600Z 29013KT 9999 FEW027 11/04 Q1016 NOSIG RMK BLU BLU
  • 280530Z 29012KT CAVOK 10/05 Q1016 NOSIG RMK BLU BLU
  • 280500Z 31008KT CAVOK 10/06 Q1016 NOSIG RMK BLU BLU
  • 280430Z 30009KT CAVOK 09/06 Q1016 NOSIG RMK BLU BLU

TAF TAF LKNA
Valid from the 28 at 06:00 until the 29 at 06:00 UTC


280500Z 2806/2906 30014KT CAVOK
BECMG 2806/2808 9999 BKN030
TEMPO 2807/2816 31018G32KT
PROB30
TEMPO 2812/2817 8000 SHRA BKN025
BECMG 2817/2819 32006KT CAVOK



MET'MAP, your aeronautical weather chart ! - Copyright ORBIFLY December 2007 - Disclaimer

ORBIFLY MET'MAP TEAM :

Programming & Development : Alexandra Zaïnal
Original concept : Baudouin d'Aumeries
Technical & hardware support : Manuel Goepfert
Assistance : Marc-Olivier Méhu

Contact : metmap@orbifly.com




SOURCES & CREDITS :

   NOAA